sensor_id;sensor_type;location;lat;lon;timestamp;temperature;humidity
35129;DHT22;21301;43.626;10.580;2023-01-29T00:00:31;4.70;99.90
35129;DHT22;21301;43.626;10.580;2023-01-29T00:02:57;4.70;99.90
35129;DHT22;21301;43.626;10.580;2023-01-29T00:05:23;4.70;99.90
35129;DHT22;21301;43.626;10.580;2023-01-29T00:07:49;4.70;99.90
35129;DHT22;21301;43.626;10.580;2023-01-29T00:10:15;4.70;99.90
35129;DHT22;21301;43.626;10.580;2023-01-29T00:12:41;4.60;99.90
35129;DHT22;21301;43.626;10.580;2023-01-29T00:15:07;4.60;99.90
35129;DHT22;21301;43.626;10.580;2023-01-29T00:17:34;4.60;99.90
35129;DHT22;21301;43.626;10.580;2023-01-29T00:19:59;4.60;99.90
35129;DHT22;21301;43.626;10.580;2023-01-29T00:22:25;4.60;99.90
35129;DHT22;21301;43.626;10.580;2023-01-29T00:24:52;4.50;99.90
35129;DHT22;21301;43.626;10.580;2023-01-29T00:27:17;4.50;99.90
35129;DHT22;21301;43.626;10.580;2023-01-29T00:29:43;4.50;99.90
35129;DHT22;21301;43.626;10.580;2023-01-29T00:32:27;4.50;99.90
35129;DHT22;21301;43.626;10.580;2023-01-29T00:34:53;4.50;99.90
35129;DHT22;21301;43.626;10.580;2023-01-29T00:37:19;4.50;99.90
35129;DHT22;21301;43.626;10.580;2023-01-29T00:39:46;4.50;99.90
35129;DHT22;21301;43.626;10.580;2023-01-29T00:42:12;4.40;99.90
35129;DHT22;21301;43.626;10.580;2023-01-29T00:44:56;4.30;99.90
35129;DHT22;21301;43.626;10.580;2023-01-29T00:47:22;4.40;99.90
35129;DHT22;21301;43.626;10.580;2023-01-29T00:50:10;4.30;99.90
35129;DHT22;21301;43.626;10.580;2023-01-29T00:52:37;4.30;99.90
35129;DHT22;21301;43.626;10.580;2023-01-29T00:55:05;4.30;99.90
35129;DHT22;21301;43.626;10.580;2023-01-29T00:57:33;4.20;99.90
35129;DHT22;21301;43.626;10.580;2023-01-29T01:00:00;4.10;99.90
35129;DHT22;21301;43.626;10.580;2023-01-29T01:02:27;4.10;99.90
35129;DHT22;21301;43.626;10.580;2023-01-29T01:05:14;4.10;99.90
35129;DHT22;21301;43.626;10.580;2023-01-29T01:07:48;4.10;99.90
35129;DHT22;21301;43.626;10.580;2023-01-29T01:10:17;4.10;99.90
35129;DHT22;21301;43.626;10.580;2023-01-29T01:12:58;4.10;99.90
35129;DHT22;21301;43.626;10.580;2023-01-29T01:15:26;4.10;99.90
35129;DHT22;21301;43.626;10.580;2023-01-29T01:17:55;4.20;99.90
35129;DHT22;21301;43.626;10.580;2023-01-29T01:20:22;4.20;99.90
35129;DHT22;21301;43.626;10.580;2023-01-29T01:22:50;4.20;99.90
35129;DHT22;21301;43.626;10.580;2023-01-29T01:25:17;4.20;99.90
35129;DHT22;21301;43.626;10.580;2023-01-29T01:27:43;4.20;99.90
35129;DHT22;21301;43.626;10.580;2023-01-29T01:30:12;4.20;99.90
35129;DHT22;21301;43.626;10.580;2023-01-29T01:32:38;4.20;99.90
35129;DHT22;21301;43.626;10.580;2023-01-29T01:35:06;4.20;99.90
35129;DHT22;21301;43.626;10.580;2023-01-29T01:37:32;4.30;99.90
35129;DHT22;21301;43.626;10.580;2023-01-29T01:39:58;4.30;99.90
35129;DHT22;21301;43.626;10.580;2023-01-29T01:42:28;4.40;99.90
35129;DHT22;21301;43.626;10.580;2023-01-29T01:44:59;4.40;99.90
35129;DHT22;21301;43.626;10.580;2023-01-29T01:47:42;4.40;99.90
35129;DHT22;21301;43.626;10.580;2023-01-29T01:52:50;4.40;99.90
35129;DHT22;21301;43.626;10.580;2023-01-29T01:55:20;4.30;99.90
35129;DHT22;21301;43.626;10.580;2023-01-29T01:57:50;4.20;99.90
35129;DHT22;21301;43.626;10.580;2023-01-29T02:00:18;4.20;99.90
35129;DHT22;21301;43.626;10.580;2023-01-29T02:02:46;4.10;99.90
35129;DHT22;21301;43.626;10.580;2023-01-29T02:05:33;4.10;99.90
35129;DHT22;21301;43.626;10.580;2023-01-29T02:11:27;4.00;99.90
35129;DHT22;21301;43.626;10.580;2023-01-29T02:13:54;4.00;99.90
35129;DHT22;21301;43.626;10.580;2023-01-29T02:16:24;4.00;99.90
35129;DHT22;21301;43.626;10.580;2023-01-29T02:18:50;4.00;99.90
35129;DHT22;21301;43.626;10.580;2023-01-29T02:27:23;4.10;99.90
35129;DHT22;21301;43.626;10.580;2023-01-29T02:35:10;4.10;99.90
35129;DHT22;21301;43.626;10.580;2023-01-29T02:46:10;4.20;99.90
35129;DHT22;21301;43.626;10.580;2023-01-29T02:54:37;4.10;99.90
35129;DHT22;21301;43.626;10.580;2023-01-29T02:57:13;4.10;99.90
35129;DHT22;21301;43.626;10.580;2023-01-29T02:59:44;4.10;99.90
35129;DHT22;21301;43.626;10.580;2023-01-29T03:02:20;4.10;99.90
35129;DHT22;21301;43.626;10.580;2023-01-29T03:04:51;4.10;99.90
35129;DHT22;21301;43.626;10.580;2023-01-29T03:07:36;4.10;99.90
35129;DHT22;21301;43.626;10.580;2023-01-29T03:10:22;4.00;99.90
35129;DHT22;21301;43.626;10.580;2023-01-29T03:12:54;4.00;99.90
35129;DHT22;21301;43.626;10.580;2023-01-29T03:15:31;4.00;99.90
35129;DHT22;21301;43.626;10.580;2023-01-29T03:18:22;4.00;99.90
35129;DHT22;21301;43.626;10.580;2023-01-29T03:21:03;4.00;99.90
35129;DHT22;21301;43.626;10.580;2023-01-29T03:23:54;3.90;99.90
35129;DHT22;21301;43.626;10.580;2023-01-29T03:26:41;3.80;99.90
35129;DHT22;21301;43.626;10.580;2023-01-29T03:29:31;3.80;99.90
35129;DHT22;21301;43.626;10.580;2023-01-29T03:32:21;3.70;99.90
35129;DHT22;21301;43.626;10.580;2023-01-29T03:34:53;3.60;99.90
35129;DHT22;21301;43.626;10.580;2023-01-29T03:37:31;3.70;99.90
35129;DHT22;21301;43.626;10.580;2023-01-29T03:40:03;3.70;99.90
35129;DHT22;21301;43.626;10.580;2023-01-29T03:59:15;3.70;99.90
35129;DHT22;21301;43.626;10.580;2023-01-29T04:02:05;3.70;99.90
35129;DHT22;21301;43.626;10.580;2023-01-29T04:04:34;3.70;99.90
35129;DHT22;21301;43.626;10.580;2023-01-29T04:07:10;3.70;99.90
35129;DHT22;21301;43.626;10.580;2023-01-29T04:09:46;3.70;99.90
35129;DHT22;21301;43.626;10.580;2023-01-29T04:12:16;3.70;99.90
35129;DHT22;21301;43.626;10.580;2023-01-29T04:14:44;3.60;99.90
35129;DHT22;21301;43.626;10.580;2023-01-29T04:17:18;3.60;99.90
35129;DHT22;21301;43.626;10.580;2023-01-29T04:20:01;3.70;99.90
35129;DHT22;21301;43.626;10.580;2023-01-29T04:22:34;3.70;99.90
35129;DHT22;21301;43.626;10.580;2023-01-29T04:25:03;3.70;99.90
35129;DHT22;21301;43.626;10.580;2023-01-29T04:28:02;3.80;99.90
35129;DHT22;21301;43.626;10.580;2023-01-29T04:30:45;3.80;99.90
35129;DHT22;21301;43.626;10.580;2023-01-29T04:39:05;3.80;99.90
35129;DHT22;21301;43.626;10.580;2023-01-29T04:41:37;3.80;99.90
35129;DHT22;21301;43.626;10.580;2023-01-29T04:44:25;3.90;99.90
35129;DHT22;21301;43.626;10.580;2023-01-29T04:49:34;3.90;99.90
35129;DHT22;21301;43.626;10.580;2023-01-29T04:52:14;3.90;99.90
35129;DHT22;21301;43.626;10.580;2023-01-29T04:55:06;3.90;99.90
35129;DHT22;21301;43.626;10.580;2023-01-29T05:00:37;4.10;99.90
35129;DHT22;21301;43.626;10.580;2023-01-29T05:03:04;4.10;99.90
35129;DHT22;21301;43.626;10.580;2023-01-29T05:05:35;4.10;99.90
35129;DHT22;21301;43.626;10.580;2023-01-29T05:08:02;4.20;99.90
35129;DHT22;21301;43.626;10.580;2023-01-29T05:10:29;4.30;99.90
35129;DHT22;21301;43.626;10.580;2023-01-29T05:13:07;4.30;99.90
35129;DHT22;21301;43.626;10.580;2023-01-29T05:18:43;4.40;99.90
35129;DHT22;21301;43.626;10.580;2023-01-29T05:21:10;4.60;99.90
35129;DHT22;21301;43.626;10.580;2023-01-29T05:23:36;4.60;99.90
35129;DHT22;21301;43.626;10.580;2023-01-29T05:26:02;4.60;99.90
35129;DHT22;21301;43.626;10.580;2023-01-29T05:28:28;4.70;99.90
35129;DHT22;21301;43.626;10.580;2023-01-29T05:30:55;4.70;99.90
35129;DHT22;21301;43.626;10.580;2023-01-29T05:33:28;4.80;99.90
35129;DHT22;21301;43.626;10.580;2023-01-29T05:35:55;4.80;99.90
35129;DHT22;21301;43.626;10.580;2023-01-29T05:38:22;4.80;99.90
35129;DHT22;21301;43.626;10.580;2023-01-29T05:40:48;4.90;99.90
35129;DHT22;21301;43.626;10.580;2023-01-29T05:43:22;4.90;99.90
35129;DHT22;21301;43.626;10.580;2023-01-29T05:45:57;4.80;99.90
35129;DHT22;21301;43.626;10.580;2023-01-29T05:48:24;4.80;99.90
35129;DHT22;21301;43.626;10.580;2023-01-29T05:50:50;4.80;99.90
35129;DHT22;21301;43.626;10.580;2023-01-29T05:53:16;4.80;99.90
35129;DHT22;21301;43.626;10.580;2023-01-29T05:55:46;4.80;99.90
35129;DHT22;21301;43.626;10.580;2023-01-29T05:58:12;4.90;99.90
35129;DHT22;21301;43.626;10.580;2023-01-29T06:00:39;4.90;99.90
35129;DHT22;21301;43.626;10.580;2023-01-29T06:03:06;4.90;99.90
35129;DHT22;21301;43.626;10.580;2023-01-29T06:05:32;4.90;99.90
35129;DHT22;21301;43.626;10.580;2023-01-29T06:07:58;5.00;99.90
35129;DHT22;21301;43.626;10.580;2023-01-29T06:10:24;5.00;99.90
35129;DHT22;21301;43.626;10.580;2023-01-29T06:12:49;5.10;99.90
35129;DHT22;21301;43.626;10.580;2023-01-29T06:15:15;5.10;99.90
35129;DHT22;21301;43.626;10.580;2023-01-29T06:17:42;5.10;99.90
35129;DHT22;21301;43.626;10.580;2023-01-29T06:20:08;5.20;99.90
35129;DHT22;21301;43.626;10.580;2023-01-29T06:22:34;5.20;99.90
35129;DHT22;21301;43.626;10.580;2023-01-29T06:25:00;5.20;99.90
35129;DHT22;21301;43.626;10.580;2023-01-29T06:27:26;5.20;99.90
35129;DHT22;21301;43.626;10.580;2023-01-29T06:29:52;5.20;99.90
35129;DHT22;21301;43.626;10.580;2023-01-29T06:32:18;5.20;99.90
35129;DHT22;21301;43.626;10.580;2023-01-29T06:34:43;5.20;99.90
35129;DHT22;21301;43.626;10.580;2023-01-29T06:37:09;5.20;99.90
35129;DHT22;21301;43.626;10.580;2023-01-29T06:39:35;5.10;99.90
35129;DHT22;21301;43.626;10.580;2023-01-29T06:42:01;5.10;99.90
35129;DHT22;21301;43.626;10.580;2023-01-29T06:44:27;5.10;99.90
35129;DHT22;21301;43.626;10.580;2023-01-29T06:46:53;5.00;99.90
35129;DHT22;21301;43.626;10.580;2023-01-29T06:49:18;5.00;99.90
35129;DHT22;21301;43.626;10.580;2023-01-29T06:51:44;5.10;99.90
35129;DHT22;21301;43.626;10.580;2023-01-29T06:54:11;5.10;99.90
35129;DHT22;21301;43.626;10.580;2023-01-29T06:56:36;5.10;99.90
35129;DHT22;21301;43.626;10.580;2023-01-29T06:59:02;5.30;99.90
35129;DHT22;21301;43.626;10.580;2023-01-29T07:01:29;5.30;99.90
35129;DHT22;21301;43.626;10.580;2023-01-29T07:03:55;5.30;99.90
35129;DHT22;21301;43.626;10.580;2023-01-29T07:06:26;5.40;99.90
35129;DHT22;21301;43.626;10.580;2023-01-29T07:08:52;5.40;99.90
35129;DHT22;21301;43.626;10.580;2023-01-29T07:11:18;5.40;99.90
35129;DHT22;21301;43.626;10.580;2023-01-29T07:13:44;5.40;99.90
35129;DHT22;21301;43.626;10.580;2023-01-29T07:16:10;5.60;99.90
35129;DHT22;21301;43.626;10.580;2023-01-29T07:18:36;6.50;99.90
35129;DHT22;21301;43.626;10.580;2023-01-29T07:21:06;7.60;99.90
35129;DHT22;21301;43.626;10.580;2023-01-29T07:23:32;8.40;99.90
35129;DHT22;21301;43.626;10.580;2023-01-29T07:26:03;8.80;99.90
35129;DHT22;21301;43.626;10.580;2023-01-29T07:28:30;9.30;98.90
35129;DHT22;21301;43.626;10.580;2023-01-29T07:30:59;9.50;98.50
35129;DHT22;21301;43.626;10.580;2023-01-29T07:33:25;10.00;97.80
35129;DHT22;21301;43.626;10.580;2023-01-29T07:35:52;10.40;97.30
35129;DHT22;21301;43.626;10.580;2023-01-29T07:38:18;10.80;96.80
35129;DHT22;21301;43.626;10.580;2023-01-29T07:40:44;10.70;96.80
35129;DHT22;21301;43.626;10.580;2023-01-29T07:43:10;11.00;96.30
35129;DHT22;21301;43.626;10.580;2023-01-29T07:45:38;11.50;96.40
35129;DHT22;21301;43.626;10.580;2023-01-29T07:48:05;11.60;95.50
35129;DHT22;21301;43.626;10.580;2023-01-29T07:50:33;11.60;95.20
35129;DHT22;21301;43.626;10.580;2023-01-29T07:52:59;11.70;95.20
35129;DHT22;21301;43.626;10.580;2023-01-29T07:55:26;11.90;95.20
35129;DHT22;21301;43.626;10.580;2023-01-29T07:57:57;11.90;95.10
35129;DHT22;21301;43.626;10.580;2023-01-29T08:00:23;12.60;95.00
35129;DHT22;21301;43.626;10.580;2023-01-29T08:02:49;12.90;94.90
35129;DHT22;21301;43.626;10.580;2023-01-29T08:05:15;13.60;94.00
35129;DHT22;21301;43.626;10.580;2023-01-29T08:07:41;13.60;94.00
35129;DHT22;21301;43.626;10.580;2023-01-29T08:10:07;14.10;93.90
35129;DHT22;21301;43.626;10.580;2023-01-29T08:12:33;14.10;93.30
35129;DHT22;21301;43.626;10.580;2023-01-29T08:14:59;14.00;93.30
35129;DHT22;21301;43.626;10.580;2023-01-29T08:17:24;14.10;92.90
35129;DHT22;21301;43.626;10.580;2023-01-29T08:19:50;13.80;92.20
35129;DHT22;21301;43.626;10.580;2023-01-29T08:22:16;12.60;92.20
35129;DHT22;21301;43.626;10.580;2023-01-29T08:24:42;11.30;93.20
35129;DHT22;21301;43.626;10.580;2023-01-29T08:27:08;10.60;94.00
35129;DHT22;21301;43.626;10.580;2023-01-29T08:29:34;10.30;94.40
35129;DHT22;21301;43.626;10.580;2023-01-29T08:32:00;10.00;95.10
35129;DHT22;21301;43.626;10.580;2023-01-29T08:34:26;9.90;95.40
35129;DHT22;21301;43.626;10.580;2023-01-29T08:36:52;9.70;95.20
35129;DHT22;21301;43.626;10.580;2023-01-29T08:39:18;9.70;95.40
35129;DHT22;21301;43.626;10.580;2023-01-29T08:41:44;9.60;95.10
35129;DHT22;21301;43.626;10.580;2023-01-29T08:44:10;9.60;95.50
35129;DHT22;21301;43.626;10.580;2023-01-29T08:46:36;9.80;95.60
35129;DHT22;21301;43.626;10.580;2023-01-29T08:49:02;9.80;95.60
35129;DHT22;21301;43.626;10.580;2023-01-29T08:51:28;9.80;95.30
35129;DHT22;21301;43.626;10.580;2023-01-29T08:53:54;9.70;95.70
35129;DHT22;21301;43.626;10.580;2023-01-29T08:56:20;9.70;95.30
35129;DHT22;21301;43.626;10.580;2023-01-29T08:58:46;9.70;95.10
35129;DHT22;21301;43.626;10.580;2023-01-29T09:01:13;9.60;95.00
35129;DHT22;21301;43.626;10.580;2023-01-29T09:03:39;9.90;95.50
35129;DHT22;21301;43.626;10.580;2023-01-29T09:06:09;9.90;95.40
35129;DHT22;21301;43.626;10.580;2023-01-29T09:08:36;10.00;95.50
35129;DHT22;21301;43.626;10.580;2023-01-29T09:11:02;9.90;95.00
35129;DHT22;21301;43.626;10.580;2023-01-29T09:13:28;9.80;94.60
35129;DHT22;21301;43.626;10.580;2023-01-29T09:16:01;9.80;94.90
35129;DHT22;21301;43.626;10.580;2023-01-29T09:18:27;10.10;95.40
35129;DHT22;21301;43.626;10.580;2023-01-29T09:20:54;10.10;95.20
35129;DHT22;21301;43.626;10.580;2023-01-29T09:23:20;10.20;94.60
35129;DHT22;21301;43.626;10.580;2023-01-29T09:25:46;10.00;95.00
35129;DHT22;21301;43.626;10.580;2023-01-29T09:28:13;10.20;95.50
35129;DHT22;21301;43.626;10.580;2023-01-29T09:30:38;10.10;94.30
35129;DHT22;21301;43.626;10.580;2023-01-29T09:33:05;10.00;94.50
35129;DHT22;21301;43.626;10.580;2023-01-29T09:35:31;9.90;95.10
35129;DHT22;21301;43.626;10.580;2023-01-29T09:37:57;10.10;95.20
35129;DHT22;21301;43.626;10.580;2023-01-29T09:43:24;10.00;94.80
35129;DHT22;21301;43.626;10.580;2023-01-29T09:46:02;10.00;94.90
35129;DHT22;21301;43.626;10.580;2023-01-29T09:48:33;9.90;95.00
35129;DHT22;21301;43.626;10.580;2023-01-29T09:51:05;10.00;95.10
35129;DHT22;21301;43.626;10.580;2023-01-29T09:53:43;10.40;95.40
35129;DHT22;21301;43.626;10.580;2023-01-29T09:56:19;10.40;95.70
35129;DHT22;21301;43.626;10.580;2023-01-29T09:58:47;10.50;95.80
35129;DHT22;21301;43.626;10.580;2023-01-29T10:01:22;10.60;95.70
35129;DHT22;21301;43.626;10.580;2023-01-29T10:09:36;10.50;94.60
35129;DHT22;21301;43.626;10.580;2023-01-29T10:15:27;10.70;94.20
35129;DHT22;21301;43.626;10.580;2023-01-29T10:21:27;10.30;94.60
35129;DHT22;21301;43.626;10.580;2023-01-29T10:26:33;10.50;94.80
35129;DHT22;21301;43.626;10.580;2023-01-29T10:29:05;10.40;94.60
35129;DHT22;21301;43.626;10.580;2023-01-29T10:31:36;10.50;94.40
35129;DHT22;21301;43.626;10.580;2023-01-29T10:34:11;10.60;94.80
35129;DHT22;21301;43.626;10.580;2023-01-29T10:36:47;10.60;94.90
35129;DHT22;21301;43.626;10.580;2023-01-29T10:39:18;10.60;94.70
35129;DHT22;21301;43.626;10.580;2023-01-29T10:44:32;10.90;94.40
35129;DHT22;21301;43.626;10.580;2023-01-29T10:59:03;11.10;94.10
35129;DHT22;21301;43.626;10.580;2023-01-29T11:01:30;11.00;94.20
35129;DHT22;21301;43.626;10.580;2023-01-29T11:04:01;11.00;94.60
35129;DHT22;21301;43.626;10.580;2023-01-29T11:06:32;11.00;94.40
35129;DHT22;21301;43.626;10.580;2023-01-29T11:11:56;11.00;94.20
35129;DHT22;21301;43.626;10.580;2023-01-29T11:17:22;11.00;94.20
35129;DHT22;21301;43.626;10.580;2023-01-29T11:19:49;11.00;94.40
35129;DHT22;21301;43.626;10.580;2023-01-29T11:22:19;11.20;94.80
35129;DHT22;21301;43.626;10.580;2023-01-29T11:24:46;11.10;94.10
35129;DHT22;21301;43.626;10.580;2023-01-29T11:27:33;11.10;94.60
35129;DHT22;21301;43.626;10.580;2023-01-29T11:30:00;11.10;94.10
35129;DHT22;21301;43.626;10.580;2023-01-29T11:32:33;11.10;94.30
35129;DHT22;21301;43.626;10.580;2023-01-29T11:35:07;11.10;93.90
35129;DHT22;21301;43.626;10.580;2023-01-29T11:37:45;11.20;94.50
35129;DHT22;21301;43.626;10.580;2023-01-29T11:42:46;11.00;94.60
35129;DHT22;21301;43.626;10.580;2023-01-29T11:47:49;11.40;94.30
35129;DHT22;21301;43.626;10.580;2023-01-29T11:50:22;11.30;94.10
35129;DHT22;21301;43.626;10.580;2023-01-29T11:52:48;11.20;94.20
35129;DHT22;21301;43.626;10.580;2023-01-29T11:55:18;11.20;94.10
35129;DHT22;21301;43.626;10.580;2023-01-29T11:57:49;11.10;94.30
35129;DHT22;21301;43.626;10.580;2023-01-29T12:00:24;11.20;94.50
35129;DHT22;21301;43.626;10.580;2023-01-29T12:03:18;11.20;94.20
35129;DHT22;21301;43.626;10.580;2023-01-29T12:06:20;11.30;94.20
35129;DHT22;21301;43.626;10.580;2023-01-29T12:08:55;11.30;93.50
35129;DHT22;21301;43.626;10.580;2023-01-29T12:11:30;11.40;94.40
35129;DHT22;21301;43.626;10.580;2023-01-29T12:14:02;11.30;93.90
35129;DHT22;21301;43.626;10.580;2023-01-29T12:19:55;11.40;93.90
35129;DHT22;21301;43.626;10.580;2023-01-29T12:22:49;11.40;93.60
35129;DHT22;21301;43.626;10.580;2023-01-29T12:25:22;11.30;94.10
35129;DHT22;21301;43.626;10.580;2023-01-29T12:27:59;11.40;94.00
35129;DHT22;21301;43.626;10.580;2023-01-29T12:30:32;11.30;94.00
35129;DHT22;21301;43.626;10.580;2023-01-29T12:35:37;11.40;94.00
35129;DHT22;21301;43.626;10.580;2023-01-29T12:38:17;11.30;93.80
35129;DHT22;21301;43.626;10.580;2023-01-29T12:40:54;11.30;94.30
35129;DHT22;21301;43.626;10.580;2023-01-29T12:43:31;11.20;93.70
35129;DHT22;21301;43.626;10.580;2023-01-29T12:46:00;11.40;94.00
35129;DHT22;21301;43.626;10.580;2023-01-29T12:48:33;11.20;93.40
35129;DHT22;21301;43.626;10.580;2023-01-29T12:51:09;11.30;94.00
35129;DHT22;21301;43.626;10.580;2023-01-29T12:53:44;11.50;94.20
35129;DHT22;21301;43.626;10.580;2023-01-29T12:56:18;11.40;94.20
35129;DHT22;21301;43.626;10.580;2023-01-29T12:58:51;11.40;94.50
35129;DHT22;21301;43.626;10.580;2023-01-29T13:01:37;11.30;94.10
35129;DHT22;21301;43.626;10.580;2023-01-29T13:04:12;11.40;94.50
35129;DHT22;21301;43.626;10.580;2023-01-29T13:06:42;11.40;93.90
35129;DHT22;21301;43.626;10.580;2023-01-29T13:09:16;11.30;93.60
35129;DHT22;21301;43.626;10.580;2023-01-29T13:14:26;11.30;93.90
35129;DHT22;21301;43.626;10.580;2023-01-29T13:17:08;11.40;94.50
35129;DHT22;21301;43.626;10.580;2023-01-29T13:19:42;11.50;94.60
35129;DHT22;21301;43.626;10.580;2023-01-29T13:22:28;11.40;93.90
35129;DHT22;21301;43.626;10.580;2023-01-29T13:24:56;11.30;93.60
35129;DHT22;21301;43.626;10.580;2023-01-29T13:27:28;11.10;93.80
35129;DHT22;21301;43.626;10.580;2023-01-29T13:29:55;11.30;94.30
35129;DHT22;21301;43.626;10.580;2023-01-29T13:32:27;11.50;94.20
35129;DHT22;21301;43.626;10.580;2023-01-29T13:34:56;11.40;93.70
35129;DHT22;21301;43.626;10.580;2023-01-29T13:37:33;11.40;94.00
35129;DHT22;21301;43.626;10.580;2023-01-29T13:40:03;11.50;93.80
35129;DHT22;21301;43.626;10.580;2023-01-29T13:42:41;11.40;93.90
35129;DHT22;21301;43.626;10.580;2023-01-29T13:45:24;11.40;93.80
35129;DHT22;21301;43.626;10.580;2023-01-29T13:47:52;11.20;93.80
35129;DHT22;21301;43.626;10.580;2023-01-29T13:50:24;11.10;93.50
35129;DHT22;21301;43.626;10.580;2023-01-29T13:52:57;11.20;94.00
35129;DHT22;21301;43.626;10.580;2023-01-29T13:55:36;11.10;94.10
35129;DHT22;21301;43.626;10.580;2023-01-29T13:58:04;11.00;94.20
35129;DHT22;21301;43.626;10.580;2023-01-29T14:05:35;10.70;94.00
35129;DHT22;21301;43.626;10.580;2023-01-29T14:10:39;10.90;94.10
35129;DHT22;21301;43.626;10.580;2023-01-29T14:15:44;11.10;94.60
35129;DHT22;21301;43.626;10.580;2023-01-29T14:20:49;10.90;93.90
35129;DHT22;21301;43.626;10.580;2023-01-29T14:25:53;10.80;94.20
35129;DHT22;21301;43.626;10.580;2023-01-29T14:28:23;10.60;93.70
35129;DHT22;21301;43.626;10.580;2023-01-29T14:30:50;10.60;94.10
35129;DHT22;21301;43.626;10.580;2023-01-29T14:35:56;10.60;94.10
35129;DHT22;21301;43.626;10.580;2023-01-29T14:38:25;10.50;94.00
35129;DHT22;21301;43.626;10.580;2023-01-29T14:41:12;10.60;94.30
35129;DHT22;21301;43.626;10.580;2023-01-29T14:43:38;10.60;93.90
35129;DHT22;21301;43.626;10.580;2023-01-29T14:48:58;10.60;94.10
35129;DHT22;21301;43.626;10.580;2023-01-29T14:51:25;10.50;93.90
35129;DHT22;21301;43.626;10.580;2023-01-29T14:54:00;10.50;94.10
35129;DHT22;21301;43.626;10.580;2023-01-29T14:56:36;10.50;94.30
35129;DHT22;21301;43.626;10.580;2023-01-29T15:01:38;10.70;94.70
35129;DHT22;21301;43.626;10.580;2023-01-29T15:04:29;10.80;94.20
35129;DHT22;21301;43.626;10.580;2023-01-29T15:07:05;10.60;94.10
35129;DHT22;21301;43.626;10.580;2023-01-29T15:09:51;10.50;94.20
35129;DHT22;21301;43.626;10.580;2023-01-29T15:17:31;10.40;94.30
35129;DHT22;21301;43.626;10.580;2023-01-29T15:19:58;10.50;94.70
35129;DHT22;21301;43.626;10.580;2023-01-29T15:22:24;10.50;94.50
35129;DHT22;21301;43.626;10.580;2023-01-29T15:25:06;10.50;94.70
35129;DHT22;21301;43.626;10.580;2023-01-29T15:27:32;10.50;94.60
35129;DHT22;21301;43.626;10.580;2023-01-29T15:30:01;10.50;94.60
35129;DHT22;21301;43.626;10.580;2023-01-29T15:32:32;10.50;94.90
35129;DHT22;21301;43.626;10.580;2023-01-29T15:34:59;10.80;94.80
35129;DHT22;21301;43.626;10.580;2023-01-29T15:37:34;10.60;94.70
35129;DHT22;21301;43.626;10.580;2023-01-29T15:40:00;10.60;94.80
35129;DHT22;21301;43.626;10.580;2023-01-29T15:42:41;10.80;94.90
35129;DHT22;21301;43.626;10.580;2023-01-29T15:45:30;10.50;94.30
35129;DHT22;21301;43.626;10.580;2023-01-29T15:48:18;10.10;94.70
35129;DHT22;21301;43.626;10.580;2023-01-29T15:50:45;9.90;95.10
35129;DHT22;21301;43.626;10.580;2023-01-29T15:53:18;9.80;95.60
35129;DHT22;21301;43.626;10.580;2023-01-29T15:55:45;9.70;95.00
35129;DHT22;21301;43.626;10.580;2023-01-29T15:58:16;9.60;95.10
35129;DHT22;21301;43.626;10.580;2023-01-29T16:00:51;9.60;95.40
35129;DHT22;21301;43.626;10.580;2023-01-29T16:03:25;9.50;95.90
35129;DHT22;21301;43.626;10.580;2023-01-29T16:05:53;9.40;96.20
35129;DHT22;21301;43.626;10.580;2023-01-29T16:08:21;9.30;96.30
35129;DHT22;21301;43.626;10.580;2023-01-29T16:10:52;9.20;96.50
35129;DHT22;21301;43.626;10.580;2023-01-29T16:13:25;9.10;96.40
35129;DHT22;21301;43.626;10.580;2023-01-29T16:18:40;8.90;96.20
35129;DHT22;21301;43.626;10.580;2023-01-29T16:21:14;8.80;96.50
35129;DHT22;21301;43.626;10.580;2023-01-29T16:23:44;8.70;96.50
35129;DHT22;21301;43.626;10.580;2023-01-29T16:26:15;8.60;96.60
35129;DHT22;21301;43.626;10.580;2023-01-29T16:28:43;8.60;96.30
35129;DHT22;21301;43.626;10.580;2023-01-29T16:31:10;8.50;96.30
35129;DHT22;21301;43.626;10.580;2023-01-29T16:33:39;8.50;96.50
35129;DHT22;21301;43.626;10.580;2023-01-29T16:36:15;8.50;96.50
35129;DHT22;21301;43.626;10.580;2023-01-29T16:38:46;8.40;96.70
35129;DHT22;21301;43.626;10.580;2023-01-29T16:46:34;8.30;96.90
35129;DHT22;21301;43.626;10.580;2023-01-29T16:49:00;8.30;96.90
35129;DHT22;21301;43.626;10.580;2023-01-29T16:51:29;8.30;97.10
35129;DHT22;21301;43.626;10.580;2023-01-29T16:54:00;8.30;97.20
35129;DHT22;21301;43.626;10.580;2023-01-29T16:56:29;8.20;97.10
35129;DHT22;21301;43.626;10.580;2023-01-29T16:58:57;8.20;97.10
35129;DHT22;21301;43.626;10.580;2023-01-29T17:01:25;8.10;96.90
35129;DHT22;21301;43.626;10.580;2023-01-29T17:04:03;8.10;97.10
35129;DHT22;21301;43.626;10.580;2023-01-29T17:06:32;8.00;97.00
35129;DHT22;21301;43.626;10.580;2023-01-29T17:08:59;8.00;97.10
35129;DHT22;21301;43.626;10.580;2023-01-29T17:11:37;8.00;97.20
35129;DHT22;21301;43.626;10.580;2023-01-29T17:14:06;7.90;97.30
35129;DHT22;21301;43.626;10.580;2023-01-29T17:16:50;7.90;97.40
35129;DHT22;21301;43.626;10.580;2023-01-29T17:19:18;7.90;97.40
35129;DHT22;21301;43.626;10.580;2023-01-29T17:21:45;7.80;97.50
35129;DHT22;21301;43.626;10.580;2023-01-29T17:24:11;7.80;97.60
35129;DHT22;21301;43.626;10.580;2023-01-29T17:26:37;7.90;98.10
35129;DHT22;21301;43.626;10.580;2023-01-29T17:29:03;7.90;97.90
35129;DHT22;21301;43.626;10.580;2023-01-29T17:31:29;8.00;98.00
35129;DHT22;21301;43.626;10.580;2023-01-29T17:33:55;7.90;97.70
35129;DHT22;21301;43.626;10.580;2023-01-29T17:36:22;8.00;98.40
35129;DHT22;21301;43.626;10.580;2023-01-29T17:38:47;8.10;98.20
35129;DHT22;21301;43.626;10.580;2023-01-29T17:41:19;8.00;98.20
35129;DHT22;21301;43.626;10.580;2023-01-29T17:43:49;8.10;98.50
35129;DHT22;21301;43.626;10.580;2023-01-29T17:46:15;8.10;98.50
35129;DHT22;21301;43.626;10.580;2023-01-29T17:48:43;8.00;98.30
35129;DHT22;21301;43.626;10.580;2023-01-29T17:51:12;8.20;99.20
35129;DHT22;21301;43.626;10.580;2023-01-29T17:53:39;8.30;98.90
35129;DHT22;21301;43.626;10.580;2023-01-29T17:56:14;8.20;99.00
35129;DHT22;21301;43.626;10.580;2023-01-29T17:58:40;7.90;99.30
35129;DHT22;21301;43.626;10.580;2023-01-29T18:01:06;8.00;99.70
35129;DHT22;21301;43.626;10.580;2023-01-29T18:03:32;7.50;99.20
35129;DHT22;21301;43.626;10.580;2023-01-29T18:05:58;7.10;99.80
35129;DHT22;21301;43.626;10.580;2023-01-29T18:08:28;7.30;99.90
35129;DHT22;21301;43.626;10.580;2023-01-29T18:10:55;7.30;99.90
35129;DHT22;21301;43.626;10.580;2023-01-29T18:13:21;7.50;99.90
35129;DHT22;21301;43.626;10.580;2023-01-29T18:15:47;7.70;99.90
35129;DHT22;21301;43.626;10.580;2023-01-29T18:18:17;7.80;99.90